Time;durP1;ratioP1;P1;durP2;ratioP2;P2;SDS_P1;SDS_P2;PMS_P1;PMS_P2;Temp;Humidity;BMP_temperature;BMP_pressure;BME280_temperature;BME280_humidity;BME280_pressure;Samples;Min_cycle;Max_cycle;Signal;HPM_P1;HPM_P2
2022/03/10 00:01:42;;;;;;;30.73;11.33;;;-1.40;83.40;;;;;;5046285;28;20650;-66
2022/03/10 00:04:08;;;;;;;32.47;12.23;;;-1.40;83.30;;;;;;5046584;28;20372;-66
2022/03/10 00:06:33;;;;;;;26.17;10.03;;;-1.40;83.00;;;;;;5046345;28;20263;-66
2022/03/10 00:08:59;;;;;;;29.90;11.27;;;-1.40;83.20;;;;;;5044317;28;20217;-65
2022/03/10 00:11:25;;;;;;;36.47;13.20;;;-1.50;83.30;;;;;;5025650;28;20195;-65
2022/03/10 00:13:50;;;;;;;36.90;12.57;;;-1.50;83.30;;;;;;5044054;28;20185;-66
2022/03/10 00:16:16;;;;;;;34.53;11.43;;;-1.60;83.40;;;;;;5045753;28;20209;-65
2022/03/10 00:18:41;;;;;;;34.00;10.90;;;-1.60;83.70;;;;;;5030773;28;20284;-65
2022/03/10 00:21:07;;;;;;;31.07;11.60;;;-1.50;84.30;;;;;;5022369;28;20217;-65
2022/03/10 00:23:33;;;;;;;22.63;10.30;;;-1.60;83.50;;;;;;5036725;28;20182;-65
2022/03/10 00:25:59;;;;;;;19.90;10.10;;;-1.60;83.30;;;;;;5031520;28;20240;-65
2022/03/10 00:28:24;;;;;;;27.57;11.43;;;-1.60;83.30;;;;;;5032376;28;20755;-66
2022/03/10 00:30:50;;;;;;;39.63;12.10;;;-1.60;82.70;;;;;;5015365;28;20666;-64
2022/03/10 00:33:15;;;;;;;28.73;10.83;;;-1.70;82.30;;;;;;5037452;28;20186;-65
2022/03/10 00:35:41;;;;;;;25.00;10.97;;;-1.70;82.90;;;;;;5038061;28;20197;-65
2022/03/10 00:38:07;;;;;;;26.87;10.17;;;-1.70;82.90;;;;;;5039971;28;20209;-65
2022/03/10 00:40:32;;;;;;;26.10;11.23;;;-1.70;82.60;;;;;;5037208;28;20292;-65
2022/03/10 00:42:58;;;;;;;36.03;10.37;;;-1.80;82.40;;;;;;5039042;28;20196;-65
2022/03/10 00:45:27;;;;;;;22.10;10.50;;;-1.70;83.00;;;;;;5037799;28;20224;-65
2022/03/10 00:47:53;;;;;;;24.70;9.70;;;-1.80;82.80;;;;;;5038969;28;20440;-65
2022/03/10 00:50:20;;;;;;;23.63;9.33;;;-1.80;82.90;;;;;;5035837;28;20429;-64
2022/03/10 00:52:47;;;;;;;20.90;9.00;;;-1.80;82.90;;;;;;5040007;28;20416;-65
2022/03/10 00:55:16;;;;;;;28.00;10.60;;;-1.70;83.10;;;;;;5046637;28;21013;-66
2022/03/10 00:57:41;;;;;;;26.53;10.00;;;-1.70;82.60;;;;;;5027816;28;20452;-65
2022/03/10 01:00:08;;;;;;;21.87;9.80;;;-1.80;83.10;;;;;;5044737;28;20950;-64
2022/03/10 01:02:35;;;;;;;26.73;9.60;;;-1.80;83.00;;;;;;5042924;28;20182;-65
2022/03/10 01:05:02;;;;;;;25.23;10.10;;;-1.70;82.60;;;;;;5039915;28;20866;-66
2022/03/10 01:07:27;;;;;;;24.53;10.37;;;-1.80;82.30;;;;;;5042659;28;20463;-65
2022/03/10 01:09:53;;;;;;;17.40;8.77;;;-1.90;82.80;;;;;;5043437;28;20511;-64
2022/03/10 01:12:19;;;;;;;27.43;10.70;;;-1.90;83.30;;;;;;5038949;28;20250;-64
2022/03/10 01:14:45;;;;;;;35.70;10.50;;;-2.00;83.10;;;;;;5038280;28;20553;-65
2022/03/10 01:17:10;;;;;;;23.23;9.73;;;-2.00;83.60;;;;;;5028581;28;20650;-66
2022/03/10 01:19:36;;;;;;;21.17;9.07;;;-2.00;83.70;;;;;;5042560;28;20762;-66
2022/03/10 01:22:02;;;;;;;19.90;8.10;;;-2.00;83.70;;;;;;5040437;28;20190;-65
2022/03/10 01:24:27;;;;;;;26.30;10.67;;;-2.00;83.60;;;;;;5042113;28;20186;-65
2022/03/10 01:26:53;;;;;;;26.17;9.53;;;-2.00;83.80;;;;;;5040019;28;20546;-64
2022/03/10 01:29:19;;;;;;;25.40;10.07;;;-2.10;83.70;;;;;;5027888;28;20919;-66
2022/03/10 01:31:45;;;;;;;31.57;10.13;;;-2.10;83.60;;;;;;5032574;28;20186;-65
2022/03/10 01:34:11;;;;;;;25.53;10.03;;;-2.20;83.80;;;;;;5038968;28;20685;-65
2022/03/10 01:36:37;;;;;;;26.67;9.40;;;-2.30;84.40;;;;;;5037801;28;20432;-66
2022/03/10 01:39:04;;;;;;;20.23;7.93;;;-2.20;85.50;;;;;;5037275;28;20437;-63
2022/03/10 01:41:34;;;;;;;17.10;8.23;;;-2.20;86.10;;;;;;5037045;28;20273;-65
2022/03/10 01:44:03;;;;;;;16.13;6.23;;;-2.30;86.20;;;;;;5038061;28;20432;-64
2022/03/10 01:46:29;;;;;;;19.40;7.40;;;-2.30;86.50;;;;;;5037116;28;20425;-64
2022/03/10 01:48:56;;;;;;;19.00;7.60;;;-2.30;86.70;;;;;;5036417;28;21162;-64
2022/03/10 01:51:25;;;;;;;16.07;6.43;;;-2.30;86.80;;;;;;5038795;28;20196;-65
2022/03/10 01:53:51;;;;;;;14.07;6.60;;;-2.20;87.40;;;;;;5045298;28;20423;-65
2022/03/10 01:56:19;;;;;;;14.87;6.07;;;-2.30;87.20;;;;;;5044963;28;20473;-65
2022/03/10 01:58:46;;;;;;;19.47;8.23;;;-2.30;87.10;;;;;;5044394;28;20455;-64
2022/03/10 02:01:13;;;;;;;14.50;5.90;;;-2.20;87.30;;;;;;5041187;28;20451;-67
2022/03/10 02:03:39;;;;;;;19.13;7.73;;;-2.20;86.80;;;;;;5039457;28;20986;-66
2022/03/10 02:06:06;;;;;;;20.03;7.63;;;-2.30;86.50;;;;;;5038755;28;20428;-67
2022/03/10 02:11:17;;;;;;;16.33;7.20;;;-2.30;87.00;;;;;;5038212;28;20503;-66
2022/03/10 02:13:42;;;;;;;17.20;6.87;;;-2.20;87.00;;;;;;5040638;28;20420;-68
2022/03/10 02:18:57;;;;;;;18.00;7.53;;;-2.30;86.50;;;;;;5037587;28;20221;-65
2022/03/10 02:21:23;;;;;;;17.33;6.47;;;-2.40;86.10;;;;;;5021359;28;20907;-67
2022/03/10 02:23:50;;;;;;;21.90;8.17;;;-2.40;87.40;;;;;;5033310;28;20194;-67
2022/03/10 02:26:16;;;;;;;11.03;5.77;;;-2.40;86.90;;;;;;5039492;28;20430;-66
2022/03/10 02:28:42;;;;;;;20.10;7.37;;;-2.30;87.30;;;;;;5034278;28;20529;-66
2022/03/10 02:31:09;;;;;;;21.03;7.60;;;-2.30;87.10;;;;;;5033566;28;20500;-65
2022/03/10 02:33:35;;;;;;;15.40;8.13;;;-2.40;86.60;;;;;;5032290;28;20476;-65
2022/03/10 02:36:01;;;;;;;16.17;6.47;;;-2.50;87.20;;;;;;5036369;28;20468;-65
2022/03/10 02:38:27;;;;;;;23.30;8.53;;;-2.50;87.50;;;;;;5032647;28;20224;-66
2022/03/10 02:40:52;;;;;;;25.60;7.73;;;-2.50;88.20;;;;;;5037131;28;20432;-66
2022/03/10 02:43:19;;;;;;;18.27;7.03;;;-2.50;87.50;;;;;;5043336;28;20599;-66
2022/03/10 02:45:45;;;;;;;15.70;7.23;;;-2.50;87.90;;;;;;5044253;28;20186;-63
2022/03/10 02:48:15;;;;;;;19.23;7.10;;;-2.50;87.60;;;;;;5042939;28;20530;-64
2022/03/10 02:50:41;;;;;;;14.13;6.57;;;-2.50;87.70;;;;;;5043312;28;20845;-64
2022/03/10 02:53:07;;;;;;;17.50;7.60;;;-2.60;86.90;;;;;;5018588;28;20484;-66
2022/03/10 02:55:33;;;;;;;19.27;6.67;;;-2.70;87.40;;;;;;5032962;28;20472;-64
2022/03/10 02:57:58;;;;;;;21.20;7.77;;;-2.60;87.50;;;;;;5041461;28;20217;-63
2022/03/10 03:00:24;;;;;;;23.43;8.37;;;-2.70;87.50;;;;;;5041187;28;20647;-63
2022/03/10 03:02:50;;;;;;;20.97;7.37;;;-2.70;87.30;;;;;;5041160;28;21025;-64
2022/03/10 03:05:16;;;;;;;19.00;7.60;;;-2.80;87.00;;;;;;5045276;28;20434;-63
2022/03/10 03:07:44;;;;;;;14.80;6.67;;;-2.90;87.10;;;;;;5041442;28;20214;-63
2022/03/10 03:10:10;;;;;;;16.80;7.70;;;-2.90;87.80;;;;;;5043494;28;20886;-63
2022/03/10 03:12:44;;;;;;;16.40;6.17;;;-2.90;88.00;;;;;;5035567;28;20807;-63
2022/03/10 03:15:09;;;;;;;13.17;6.70;;;-2.90;88.30;;;;;;5044081;28;20483;-65
2022/03/10 03:17:35;;;;;;;15.33;6.77;;;-2.80;87.90;;;;;;5036379;28;20472;-64
2022/03/10 03:20:01;;;;;;;21.03;7.70;;;-2.80;88.10;;;;;;5041713;28;20189;-64
2022/03/10 03:22:26;;;;;;;12.00;5.60;;;-2.80;87.90;;;;;;5037388;28;20191;-64
2022/03/10 03:24:52;;;;;;;12.70;6.10;;;-2.90;88.40;;;;;;5042885;28;20748;-63
2022/03/10 03:27:18;;;;;;;18.03;6.33;;;-2.90;87.90;;;;;;5035927;28;20205;-63
2022/03/10 03:29:43;;;;;;;13.27;6.30;;;-3.00;88.40;;;;;;5041095;28;20185;-64
2022/03/10 03:32:09;;;;;;;19.40;7.43;;;-3.00;89.60;;;;;;5012674;28;20201;-64
2022/03/10 03:34:34;;;;;;;18.13;6.07;;;-3.00;89.10;;;;;;5041769;28;20213;-64
2022/03/10 03:37:00;;;;;;;18.97;7.00;;;-3.00;88.90;;;;;;5041908;28;20186;-63
2022/03/10 03:39:26;;;;;;;13.57;6.13;;;-3.10;88.90;;;;;;5046915;28;20181;-64
2022/03/10 03:41:51;;;;;;;16.30;6.40;;;-3.10;89.20;;;;;;5042110;28;20213;-64
2022/03/10 03:44:17;;;;;;;22.50;8.07;;;-3.10;90.10;;;;;;5045072;28;20178;-61
2022/03/10 03:46:42;;;;;;;16.97;8.53;;;-3.00;90.30;;;;;;5037510;28;20671;-64
2022/03/10 03:49:08;;;;;;;12.07;6.27;;;-3.00;90.10;;;;;;5045354;28;20209;-63
2022/03/10 03:51:35;;;;;;;13.30;6.77;;;-3.00;90.00;;;;;;5025073;28;20190;-64
2022/03/10 03:54:02;;;;;;;16.77;8.17;;;-3.00;89.90;;;;;;5045581;28;20420;-64
2022/03/10 03:56:27;;;;;;;17.60;7.23;;;-3.00;90.20;;;;;;5042064;28;20466;-64
2022/03/10 03:58:53;;;;;;;19.27;6.27;;;-3.10;90.00;;;;;;5044172;28;20448;-64
2022/03/10 04:01:19;;;;;;;15.70;7.70;;;-3.10;90.20;;;;;;5041070;28;20198;-64
2022/03/10 04:03:44;;;;;;;22.17;9.20;;;-3.10;90.20;;;;;;5044170;28;20182;-63
2022/03/10 04:06:10;;;;;;;17.40;7.47;;;-3.10;90.20;;;;;;5039718;28;20186;-63
2022/03/10 04:08:36;;;;;;;17.03;7.47;;;-3.00;90.40;;;;;;5042926;28;20229;-63
2022/03/10 04:11:04;;;;;;;15.87;7.60;;;-3.00;90.20;;;;;;5038738;28;20250;-64
2022/03/10 04:13:29;;;;;;;18.03;7.20;;;-3.00;89.70;;;;;;5032313;28;20412;-64
2022/03/10 04:15:55;;;;;;;18.83;8.40;;;-3.10;90.00;;;;;;5037394;28;20473;-65
2022/03/10 04:18:20;;;;;;;20.07;7.27;;;-3.10;90.20;;;;;;5039599;28;20304;-64
2022/03/10 04:20:47;;;;;;;22.73;7.50;;;-3.20;90.20;;;;;;5030141;28;20194;-65
2022/03/10 04:23:14;;;;;;;19.03;8.03;;;-3.20;90.30;;;;;;5022477;28;20756;-64
2022/03/10 04:25:40;;;;;;;18.73;7.63;;;-3.10;90.30;;;;;;5034602;28;20433;-63
2022/03/10 04:28:06;;;;;;;17.50;7.33;;;-3.10;90.20;;;;;;5040123;28;20444;-64
2022/03/10 04:30:34;;;;;;;19.33;8.50;;;-3.20;89.90;;;;;;5042951;28;20783;-65
2022/03/10 04:33:01;;;;;;;16.60;8.30;;;-3.20;89.90;;;;;;5034422;28;20186;-66
2022/03/10 04:35:28;;;;;;;15.70;7.83;;;-3.30;90.00;;;;;;5037437;28;21323;-64
2022/03/10 04:37:55;;;;;;;18.43;7.63;;;-3.30;90.20;;;;;;5039740;28;21200;-65
2022/03/10 04:40:22;;;;;;;19.80;8.07;;;-3.30;90.30;;;;;;5043607;28;20416;-65
2022/03/10 04:42:49;;;;;;;19.70;8.37;;;-3.40;90.10;;;;;;5026320;28;20431;-65
2022/03/10 04:45:15;;;;;;;17.47;8.10;;;-3.40;90.10;;;;;;5043531;28;21277;-66
2022/03/10 04:47:41;;;;;;;18.80;8.30;;;-3.40;90.40;;;;;;5044414;28;20443;-66
2022/03/10 04:50:09;;;;;;;16.90;7.83;;;-3.40;90.60;;;;;;5040937;28;20459;-65
2022/03/10 04:52:36;;;;;;;15.43;7.80;;;-3.40;90.50;;;;;;5043046;28;20491;-65
2022/03/10 04:55:02;;;;;;;26.67;9.00;;;-3.40;90.40;;;;;;5041049;28;20467;-66
2022/03/10 04:57:28;;;;;;;18.70;8.10;;;-3.40;90.60;;;;;;5043845;28;20806;-64
2022/03/10 04:59:53;;;;;;;13.43;6.60;;;-3.40;90.70;;;;;;5024204;28;20452;-65
2022/03/10 05:02:19;;;;;;;14.10;7.67;;;-3.50;90.60;;;;;;5041811;28;20256;-64
2022/03/10 05:04:45;;;;;;;20.10;8.10;;;-3.40;90.80;;;;;;5038480;28;20196;-65
2022/03/10 05:07:12;;;;;;;20.33;7.70;;;-3.40;90.50;;;;;;5041683;28;20424;-65
2022/03/10 05:09:37;;;;;;;20.27;8.70;;;-3.40;90.40;;;;;;5036314;28;20567;-64
2022/03/10 05:12:03;;;;;;;24.90;9.50;;;-3.50;90.60;;;;;;5034772;28;20449;-65
2022/03/10 05:14:29;;;;;;;24.87;8.70;;;-3.50;90.70;;;;;;5036532;28;20190;-65
2022/03/10 05:16:55;;;;;;;16.37;6.90;;;-3.50;90.80;;;;;;5037658;28;20483;-65
2022/03/10 05:19:21;;;;;;;26.07;9.00;;;-3.50;90.80;;;;;;5034449;28;20308;-65
2022/03/10 05:21:46;;;;;;;18.50;7.57;;;-3.60;90.70;;;;;;5039587;28;20200;-66
2022/03/10 05:24:12;;;;;;;15.73;6.37;;;-3.70;90.70;;;;;;5022893;28;20186;-64
2022/03/10 05:26:38;;;;;;;20.43;7.43;;;-3.70;91.10;;;;;;5037343;28;20559;-64
2022/03/10 05:29:05;;;;;;;25.87;9.27;;;-3.60;91.30;;;;;;5038741;28;20464;-63
2022/03/10 05:31:30;;;;;;;21.87;9.07;;;-3.70;91.30;;;;;;5024563;28;20433;-65
2022/03/10 05:33:56;;;;;;;16.50;7.10;;;-3.60;91.40;;;;;;5043980;28;20436;-64
2022/03/10 05:36:22;;;;;;;17.27;7.30;;;-3.80;91.10;;;;;;5042567;28;20209;-65
2022/03/10 05:38:48;;;;;;;13.80;7.50;;;-3.50;91.30;;;;;;5041749;28;20281;-66
2022/03/10 05:41:14;;;;;;;17.33;6.97;;;-3.50;91.20;;;;;;5041946;28;20177;-65
2022/03/10 05:43:39;;;;;;;15.43;7.03;;;-3.50;90.90;;;;;;5035589;28;20178;-66
2022/03/10 05:46:05;;;;;;;17.80;8.43;;;-3.60;91.10;;;;;;5042849;28;20193;-62
2022/03/10 05:48:31;;;;;;;15.77;7.80;;;-3.70;91.30;;;;;;5039933;28;20232;-64
2022/03/10 05:50:57;;;;;;;18.10;7.93;;;-3.70;91.20;;;;;;5042010;28;20193;-65
2022/03/10 05:53:23;;;;;;;19.87;8.07;;;-3.70;91.10;;;;;;5038870;28;20490;-66
2022/03/10 05:55:49;;;;;;;21.83;6.87;;;-3.80;91.00;;;;;;5041677;28;20570;-63
2022/03/10 05:58:14;;;;;;;17.23;7.20;;;-3.80;91.30;;;;;;5036899;28;20222;-62
2022/03/10 06:00:40;;;;;;;20.63;7.80;;;-3.80;91.50;;;;;;5042938;28;20201;-65
2022/03/10 06:03:06;;;;;;;23.27;9.37;;;-3.80;91.60;;;;;;5036576;28;20196;-65
2022/03/10 06:05:33;;;;;;;31.10;8.73;;;-3.80;91.90;;;;;;5040735;28;20200;-64
2022/03/10 06:07:59;;;;;;;19.37;8.40;;;-3.70;91.50;;;;;;5035399;28;20225;-65
2022/03/10 06:10:25;;;;;;;21.27;8.67;;;-3.60;91.60;;;;;;5038951;28;20702;-65
2022/03/10 06:12:51;;;;;;;24.60;8.90;;;-3.60;91.40;;;;;;5029594;28;20435;-65
2022/03/10 06:15:17;;;;;;;16.03;9.33;;;-3.50;91.30;;;;;;5035232;28;20547;-66
2022/03/10 06:17:43;;;;;;;25.20;9.27;;;-3.40;91.40;;;;;;5030015;28;20587;-68
2022/03/10 06:20:10;;;;;;;25.80;9.10;;;-3.40;91.30;;;;;;5043902;28;20356;-65
2022/03/10 06:22:37;;;;;;;25.17;9.73;;;-3.40;91.20;;;;;;5016665;28;20186;-65
2022/03/10 06:25:04;;;;;;;31.07;10.27;;;-3.40;91.10;;;;;;5027040;28;20890;-65
2022/03/10 06:27:31;;;;;;;23.60;10.73;;;-3.30;90.90;;;;;;5027648;28;20922;-65
2022/03/10 06:29:56;;;;;;;31.90;10.87;;;-3.30;91.10;;;;;;5025171;28;20437;-66
2022/03/10 06:32:24;;;;;;;32.10;12.27;;;-3.30;91.30;;;;;;5025704;28;20425;-65
2022/03/10 06:34:51;;;;;;;30.70;10.67;;;-3.20;91.30;;;;;;5023565;28;20817;-64
2022/03/10 06:37:18;;;;;;;27.53;10.53;;;-3.20;91.20;;;;;;5031476;28;20468;-63
2022/03/10 06:39:43;;;;;;;23.30;10.40;;;-3.20;91.10;;;;;;5037170;28;20930;-64
2022/03/10 06:42:09;;;;;;;22.10;9.73;;;-3.10;91.30;;;;;;5037867;28;20425;-66
2022/03/10 06:44:36;;;;;;;22.23;9.80;;;-3.10;91.10;;;;;;5038636;28;20211;-65
2022/03/10 06:47:06;;;;;;;23.10;9.83;;;-3.00;91.20;;;;;;5038191;28;20327;-64
2022/03/10 06:49:32;;;;;;;30.50;11.47;;;-2.90;91.20;;;;;;5032618;28;20475;-65
2022/03/10 06:51:59;;;;;;;40.17;12.50;;;-2.80;91.10;;;;;;5034052;28;20923;-63
2022/03/10 06:54:25;;;;;;;30.63;12.97;;;-2.70;90.80;;;;;;5031734;28;20460;-65
2022/03/10 06:56:51;;;;;;;30.10;11.23;;;-2.70;90.80;;;;;;5034682;28;20416;-65
2022/03/10 06:59:17;;;;;;;33.70;12.60;;;-2.60;90.80;;;;;;5030768;28;20495;-66
2022/03/10 07:01:42;;;;;;;29.37;11.93;;;-2.60;90.70;;;;;;5044529;28;20423;-65
2022/03/10 07:04:08;;;;;;;25.43;11.37;;;-2.50;90.50;;;;;;5038079;28;20416;-64
2022/03/10 07:06:34;;;;;;;31.07;11.70;;;-2.30;90.40;;;;;;5042471;28;20197;-64
2022/03/10 07:08:59;;;;;;;24.30;11.40;;;-2.20;90.20;;;;;;5046388;28;20463;-64
2022/03/10 07:11:25;;;;;;;26.73;10.53;;;-2.00;90.10;;;;;;5022593;28;20217;-66
2022/03/10 07:13:52;;;;;;;26.77;11.20;;;-1.90;89.80;;;;;;5036430;28;20212;-66
2022/03/10 07:16:18;;;;;;;33.43;10.10;;;-1.70;89.90;;;;;;5039199;28;20638;-66
2022/03/10 07:18:50;;;;;;;33.40;11.77;;;-1.30;89.80;;;;;;5032682;28;21373;-66
2022/03/10 07:21:17;;;;;;;36.57;11.73;;;-1.00;89.50;;;;;;5026869;28;20180;-67
2022/03/10 07:23:43;;;;;;;39.27;9.73;;;-0.60;88.30;;;;;;5040356;28;20451;-67
2022/03/10 07:26:10;;;;;;;20.10;9.60;;;-0.30;87.80;;;;;;5036916;28;20512;-66
2022/03/10 07:28:35;;;;;;;26.40;10.70;;;0.10;86.60;;;;;;5030386;28;20749;-67
2022/03/10 07:31:01;;;;;;;39.90;12.50;;;0.40;85.50;;;;;;5035611;28;20428;-66
2022/03/10 07:33:28;;;;;;;39.40;10.13;;;0.80;83.60;;;;;;5032925;28;20574;-67
2022/03/10 07:35:53;;;;;;;22.63;10.27;;;1.10;82.20;;;;;;5032803;28;20464;-66
2022/03/10 07:38:19;;;;;;;28.53;10.63;;;1.40;81.60;;;;;;5031811;28;20440;-65
2022/03/10 07:40:45;;;;;;;23.70;8.93;;;1.80;81.20;;;;;;5021585;28;20185;-64
2022/03/10 07:43:10;;;;;;;20.70;10.27;;;2.50;80.70;;;;;;5038672;28;20190;-67
2022/03/10 07:45:36;;;;;;;22.77;9.03;;;3.30;77.80;;;;;;5042661;28;20627;-67
2022/03/10 07:48:02;;;;;;;34.87;12.90;;;4.00;76.90;;;;;;5039933;28;20218;-65
2022/03/10 07:50:28;;;;;;;20.30;9.47;;;4.80;73.90;;;;;;5040389;28;20186;-67
2022/03/10 07:52:53;;;;;;;23.80;10.77;;;5.50;72.30;;;;;;5034701;28;20191;-67
2022/03/10 07:55:19;;;;;;;30.07;10.20;;;6.50;70.40;;;;;;5024863;28;20285;-67
2022/03/10 07:57:44;;;;;;;30.47;11.33;;;7.20;66.70;;;;;;5035709;28;20729;-68
2022/03/10 08:00:11;;;;;;;26.70;11.30;;;7.50;65.40;;;;;;5033790;28;20198;-67
2022/03/10 08:02:37;;;;;;;22.67;9.60;;;8.10;64.20;;;;;;5034943;28;20193;-66
2022/03/10 08:05:03;;;;;;;18.90;8.50;;;8.80;61.90;;;;;;5035366;28;20431;-67
2022/03/10 08:07:32;;;;;;;27.37;10.20;;;9.60;59.80;;;;;;5026987;28;20580;-66
2022/03/10 08:09:59;;;;;;;25.67;10.20;;;10.20;58.00;;;;;;5038221;28;20455;-67
2022/03/10 08:12:29;;;;;;;18.33;8.50;;;10.90;56.50;;;;;;5041891;28;20433;-67
2022/03/10 08:14:56;;;;;;;28.03;8.53;;;11.60;56.20;;;;;;5038626;28;20460;-67
2022/03/10 08:17:21;;;;;;;21.90;8.70;;;11.90;55.10;;;;;;5035055;28;20420;-67
2022/03/10 08:19:47;;;;;;;17.50;8.43;;;12.00;54.40;;;;;;5037104;28;20435;-66
2022/03/10 08:22:17;;;;;;;17.87;7.27;;;12.00;53.40;;;;;;5033242;28;20756;-67
2022/03/10 08:24:44;;;;;;;16.27;7.40;;;11.70;53.60;;;;;;5032856;28;20773;-68
2022/03/10 08:27:10;;;;;;;23.30;7.47;;;11.60;54.00;;;;;;5024987;28;20905;-67
2022/03/10 08:29:36;;;;;;;33.50;7.80;;;11.40;54.80;;;;;;5030380;28;20480;-67
2022/03/10 08:32:03;;;;;;;15.73;8.10;;;11.40;55.20;;;;;;5036532;28;20452;-68
2022/03/10 08:34:28;;;;;;;17.93;7.43;;;11.30;54.90;;;;;;5025721;28;20189;-68
2022/03/10 08:36:54;;;;;;;19.00;7.60;;;11.50;55.40;;;;;;5036710;28;20428;-67
2022/03/10 08:39:20;;;;;;;21.77;5.67;;;11.60;54.80;;;;;;5032637;28;20357;-68
2022/03/10 08:41:45;;;;;;;19.73;7.47;;;12.00;54.40;;;;;;5024189;28;20191;-65
2022/03/10 08:44:12;;;;;;;14.87;7.07;;;12.30;53.30;;;;;;5031910;28;20196;-66
2022/03/10 08:46:39;;;;;;;13.10;6.40;;;12.30;51.70;;;;;;5045285;28;20299;-65
2022/03/10 08:49:04;;;;;;;12.60;5.70;;;12.30;52.50;;;;;;5043888;28;20436;-66
2022/03/10 08:51:30;;;;;;;9.07;5.43;;;12.60;52.20;;;;;;5042835;28;20462;-65
2022/03/10 08:53:56;;;;;;;19.10;6.00;;;12.70;51.10;;;;;;5030565;28;20550;-64
2022/03/10 08:56:22;;;;;;;11.33;5.33;;;12.80;51.60;;;;;;5043238;28;20220;-65
2022/03/10 08:58:48;;;;;;;12.43;5.70;;;12.90;50.70;;;;;;5041651;28;20448;-63
2022/03/10 09:01:13;;;;;;;17.93;6.30;;;12.70;51.30;;;;;;5042233;28;20212;-67
2022/03/10 09:03:39;;;;;;;13.27;5.87;;;12.70;51.30;;;;;;5042104;28;20182;-66
2022/03/10 09:06:05;;;;;;;12.10;4.77;;;12.40;51.60;;;;;;5038767;28;20194;-67
2022/03/10 09:08:32;;;;;;;10.30;5.03;;;12.60;52.00;;;;;;5035891;28;20209;-67
2022/03/10 09:10:58;;;;;;;9.90;4.30;;;12.60;51.20;;;;;;5020597;28;20288;-67
2022/03/10 09:13:23;;;;;;;10.43;3.80;;;12.30;51.50;;;;;;5042676;28;20586;-67
2022/03/10 09:15:49;;;;;;;10.10;4.07;;;12.30;51.80;;;;;;5043398;28;20734;-66
2022/03/10 09:18:15;;;;;;;7.73;3.97;;;12.00;51.70;;;;;;5033424;28;20203;-62
2022/03/10 09:20:40;;;;;;;11.40;4.50;;;12.00;51.90;;;;;;5043029;28;20184;-64
2022/03/10 09:23:07;;;;;;;9.87;4.30;;;12.10;51.60;;;;;;5043749;28;20696;-66
2022/03/10 09:25:32;;;;;;;9.47;4.90;;;11.80;52.50;;;;;;5041082;28;20691;-65
2022/03/10 09:27:58;;;;;;;13.77;5.77;;;12.10;52.00;;;;;;5037648;28;20436;-65
2022/03/10 09:30:24;;;;;;;10.73;4.40;;;11.90;52.20;;;;;;5039950;28;20186;-65
2022/03/10 09:32:50;;;;;;;9.50;5.10;;;11.20;52.90;;;;;;5040265;28;20556;-65
2022/03/10 09:35:17;;;;;;;8.60;3.07;;;11.30;53.30;;;;;;5030957;28;20277;-65
2022/03/10 09:37:43;;;;;;;11.90;4.40;;;11.40;52.60;;;;;;5042217;28;20260;-65
2022/03/10 09:40:10;;;;;;;7.97;4.00;;;11.40;52.90;;;;;;5037035;28;20449;-64
2022/03/10 09:42:36;;;;;;;8.67;3.67;;;11.50;52.60;;;;;;5036349;28;20538;-65
2022/03/10 09:45:08;;;;;;;9.90;4.43;;;11.20;53.10;;;;;;5036342;28;20433;-66
2022/03/10 09:47:36;;;;;;;9.13;3.27;;;11.00;53.00;;;;;;5040777;28;20488;-65
2022/03/10 09:50:04;;;;;;;10.40;4.33;;;10.80;54.00;;;;;;5028773;28;20425;-66
2022/03/10 09:52:31;;;;;;;7.97;3.13;;;10.20;54.90;;;;;;5027664;28;20593;-67
2022/03/10 09:54:59;;;;;;;9.17;4.63;;;10.00;54.70;;;;;;5033274;28;20465;-63
2022/03/10 09:57:25;;;;;;;11.17;4.40;;;10.00;55.50;;;;;;5032701;28;20465;-66
2022/03/10 09:59:53;;;;;;;8.20;3.40;;;10.10;55.30;;;;;;5037516;28;20749;-65
2022/03/10 10:02:19;;;;;;;13.10;4.40;;;9.90;56.80;;;;;;5037260;28;20423;-64
2022/03/10 10:04:48;;;;;;;8.93;4.13;;;9.90;56.50;;;;;;5028650;28;20425;-63
2022/03/10 10:07:14;;;;;;;8.33;3.57;;;10.10;55.60;;;;;;5047984;28;20428;-67
2022/03/10 10:09:54;;;;;;;9.33;4.13;;;10.00;56.10;;;;;;5037975;28;20518;-65
2022/03/10 10:12:27;;;;;;;9.70;3.40;;;10.10;55.90;;;;;;5033923;28;20492;-65
2022/03/10 10:14:54;;;;;;;11.20;3.73;;;10.30;54.90;;;;;;5032390;28;20511;-66
2022/03/10 10:17:54;;;;;;;6.63;3.10;;;10.20;55.50;;;;;;5029124;28;20991;-66
2022/03/10 10:20:19;;;;;;;6.83;3.07;;;10.30;55.10;;;;;;5030378;28;20453;-64
2022/03/10 10:22:47;;;;;;;11.37;4.37;;;10.30;55.80;;;;;;5030690;28;20431;-65
2022/03/10 10:25:23;;;;;;;7.63;3.47;;;10.50;55.40;;;;;;5007513;28;20561;-65
2022/03/10 10:27:49;;;;;;;9.80;4.23;;;10.60;56.00;;;;;;5037675;28;20994;-66
2022/03/10 10:30:15;;;;;;;7.43;3.27;;;10.70;55.40;;;;;;5027954;28;20496;-66
2022/03/10 10:32:48;;;;;;;7.70;3.77;;;10.80;55.00;;;;;;5009220;28;20420;-64
2022/03/10 10:35:21;;;;;;;7.07;3.10;;;10.80;55.40;;;;;;5003759;28;20456;-65
2022/03/10 10:37:52;;;;;;;8.07;3.57;;;10.90;53.40;;;;;;5026447;28;20439;-65
2022/03/10 10:40:24;;;;;;;7.17;2.50;;;11.10;53.60;;;;;;5022140;28;20417;-66
2022/03/10 10:42:50;;;;;;;4.60;2.10;;;11.10;54.00;;;;;;5025508;28;20420;-66
2022/03/10 10:45:36;;;;;;;3.20;1.93;;;11.10;52.90;;;;;;5026707;28;20543;-65
2022/03/10 10:48:02;;;;;;;5.33;2.20;;;11.20;52.80;;;;;;5026267;28;20443;-64
2022/03/10 10:50:30;;;;;;;6.07;2.67;;;11.40;53.20;;;;;;5009904;28;20584;-65
2022/03/10 10:52:55;;;;;;;5.53;2.57;;;11.50;52.70;;;;;;5027836;28;20190;-66
2022/03/10 10:55:29;;;;;;;4.80;2.30;;;11.40;52.40;;;;;;5029694;28;20460;-67
2022/03/10 10:57:55;;;;;;;4.70;2.40;;;11.70;52.20;;;;;;5009684;28;20204;-64
2022/03/10 11:00:21;;;;;;;6.53;3.10;;;11.60;51.80;;;;;;5007243;28;20445;-64
2022/03/10 11:02:46;;;;;;;4.50;2.23;;;11.50;52.00;;;;;;5027865;28;20187;-64
2022/03/10 11:05:14;;;;;;;5.30;2.47;;;11.60;51.70;;;;;;5026823;28;20186;-67
2022/03/10 11:07:40;;;;;;;4.03;1.90;;;11.70;52.00;;;;;;5029514;28;20211;-65
2022/03/10 11:10:11;;;;;;;2.50;1.37;;;11.80;52.20;;;;;;5031133;28;20471;-65
2022/03/10 11:12:40;;;;;;;2.57;1.40;;;12.00;50.30;;;;;;5025739;28;20424;-65
2022/03/10 11:15:09;;;;;;;3.10;1.27;;;12.00;49.40;;;;;;5010069;28;20492;-66
2022/03/10 11:17:35;;;;;;;5.00;1.97;;;12.20;48.90;;;;;;5027148;28;20441;-67
2022/03/10 11:20:05;;;;;;;12.63;1.60;;;12.30;49.40;;;;;;5027624;28;20471;-66
2022/03/10 11:23:16;;;;;;;3.40;1.43;;;12.20;48.30;;;;;;5030434;28;20787;-65
2022/03/10 11:25:55;;;;;;;4.30;1.03;;;12.30;49.70;;;;;;5008275;28;20440;-65
2022/03/10 11:28:26;;;;;;;2.87;1.57;;;12.40;48.50;;;;;;5038311;28;20450;-65
2022/03/10 11:31:00;;;;;;;5.13;2.50;;;12.40;48.40;;;;;;5036036;28;20428;-66
2022/03/10 11:33:34;;;;;;;5.67;2.20;;;12.50;49.00;;;;;;5037229;28;20989;-65
2022/03/10 11:36:00;;;;;;;4.83;1.97;;;12.30;48.10;;;;;;5030092;28;20535;-66
2022/03/10 11:38:51;;;;;;;5.03;2.03;;;12.40;48.90;;;;;;5040515;28;20444;-65
2022/03/10 11:41:17;;;;;;;2.97;1.40;;;12.50;49.20;;;;;;5031404;28;20194;-65
2022/03/10 11:44:00;;;;;;;7.53;2.30;;;12.70;48.30;;;;;;5035024;28;20420;-65
2022/03/10 11:46:28;;;;;;;4.60;2.00;;;12.70;47.40;;;;;;5038268;28;20186;-65
2022/03/10 11:49:01;;;;;;;5.10;1.40;;;12.90;47.30;;;;;;5034551;28;20452;-66
2022/03/10 11:51:52;;;;;;;3.20;1.10;;;12.90;45.70;;;;;;5032726;28;20420;-65
2022/03/10 11:54:28;;;;;;;3.90;1.67;;;13.20;46.60;;;;;;5035239;28;20409;-65
2022/03/10 11:56:57;;;;;;;4.63;2.20;;;13.30;47.30;;;;;;5034138;28;20941;-65
2022/03/10 11:59:32;;;;;;;3.93;1.90;;;13.30;45.80;;;;;;5023682;28;20544;-66
2022/03/10 12:01:59;;;;;;;4.13;1.70;;;13.60;46.20;;;;;;5035145;28;20917;-64
2022/03/10 12:04:37;;;;;;;5.93;1.93;;;13.70;45.30;;;;;;5031853;28;20417;-66
2022/03/10 12:07:03;;;;;;;5.10;1.57;;;13.80;46.70;;;;;;5043449;28;20426;-66
2022/03/10 12:09:34;;;;;;;3.17;1.93;;;13.90;46.80;;;;;;5044764;28;20959;-66
2022/03/10 12:12:20;;;;;;;5.27;2.17;;;14.00;45.00;;;;;;5037793;28;20797;-66
2022/03/10 12:14:47;;;;;;;3.77;1.80;;;14.00;46.50;;;;;;5028800;28;20445;-66
2022/03/10 12:17:44;;;;;;;3.43;2.00;;;14.10;45.60;;;;;;5031554;28;20429;-66
2022/03/10 12:20:11;;;;;;;7.63;2.53;;;14.10;46.00;;;;;;5034010;28;20417;-67
2022/03/10 12:22:37;;;;;;;5.27;1.40;;;14.00;46.40;;;;;;5029646;28;20445;-66
2022/03/10 12:25:22;;;;;;;2.70;1.50;;;14.10;45.30;;;;;;5023972;28;20540;-65
2022/03/10 12:27:53;;;;;;;9.17;1.70;;;14.10;44.80;;;;;;5030695;28;20201;-66
2022/03/10 12:30:24;;;;;;;2.20;1.10;;;14.10;45.20;;;;;;5027129;28;20505;-67
2022/03/10 12:32:54;;;;;;;2.53;1.27;;;14.30;44.50;;;;;;5031581;28;20512;-67
2022/03/10 12:35:25;;;;;;;3.60;1.30;;;14.30;44.20;;;;;;5025675;28;20465;-67
2022/03/10 12:37:50;;;;;;;3.83;1.70;;;14.50;43.90;;;;;;5028757;28;20453;-67
2022/03/10 12:40:18;;;;;;;2.23;1.17;;;14.40;43.80;;;;;;5041372;28;20427;-67
2022/03/10 12:42:46;;;;;;;2.37;1.30;;;14.50;43.40;;;;;;5040509;28;20205;-65
2022/03/10 12:45:13;;;;;;;4.60;1.70;;;14.30;43.80;;;;;;5041884;28;20506;-66